ePrivacy and GPDR Cookie Consent by Cookie Consent
EmailTwitter


Observations de surface / France / LFBO (07630)

Régions: Québec | Canada | États-Unis | Europe | France | UK | Ailleurs
Station
Affichage
Infos & localisation pour LFBO (07630) | Aide pour décoder les METARs

Observations prises le 2021-06-21 à 22H00 UTC à TOULOUSE/BLAGNAC, FR (LFBO)

Température: 16.0 Celsius

Point de rosée: 14.0 Celsius

Humidité relative: 88%

Vents: Nord-ouest à 11 km/h ou 6 noeuds.

Pression au niveau moyen de la mer: 101.30 kilopascals.

Visibilité horizontale: 6.21 milles terrestres ou 9.94 kilomètres.

Observation METAR:

LFBO 212200Z AUTO 32006KT 9999 ///TCU 16/14 Q1013 TEMPO VRB20G35KT 4000 TSRA

SCT020 BKN040CB=